Weather at McArthur River Mine Airport

Public forecast

Using degrees Celsius for public forecast. Weather courtesy of forecast.io.

Closest aviation weather report (METAR) to McArthur River Mine Airport

Closest report is Tindal Airport, 243.5 nm (450.9 km) WNW. Retrieved 2021/06/15 23:00 UTC (6 minutes ago):

YPTN 152300Z 00000KT CAVOK 21/16 Q1014

Closest aviation forecast (TAF) to McArthur River Mine Airport

Closest forecast is Tindal Airport, 243.5 nm (450.9 km) WNW. Retrieved 2021/06/15 18:00 UTC (5 hours ago):

TAF YPTN 151701Z 1518/1618 09005KT CAVOK